Estación Meteorológica Peña el Pijo (Robertgarden) [ 03/25/19 04:03:48 CET ]

Fecha Hora Presion(HPa) Temp (°C) Humedad % Rocio (°C) Viento ( m/s) Direccion Lluvia 1Hora(mm) Lluvia 24H(mm) LLuvia Total(mm)
2018-Nov-23 01:01:28 1003.400 7.6 84 5.1         150.73
2018-Nov-23 02:03:10 1003.100 6.1 84 3.6         150.73
2018-Nov-23 03:01:25 1002.900 4.9 86 2.7         150.73
2018-Nov-23 04:01:35 1002.300 4.4 87 2.4         150.73
2018-Nov-23 05:01:22 1002.100 4.8 88 3.0         150.73
2018-Nov-23 06:01:34 1002.400 5.1 88 3.3         150.73
2018-Nov-23 07:01:32 1002.400 5.4 89 3.6     1.03 1.03 151.77
2018-Nov-23 08:01:31 1002.800 5.6 89 3.9       1.03 151.77
2018-Nov-23 09:01:34 1003.300 6.3 90 4.7       1.03 151.77
2018-Nov-23 10:01:20 1004.000 7.6 90 6.0       1.03 151.77
2018-Nov-23 11:01:20 1004.500 9.3 89 7.5       1.03 151.77
2018-Nov-23 12:01:41 1004.800 9.7 84 7.1       1.03 151.77
2018-Nov-23 10:31:41 1004.500 9.6 84 7.0       1.03 151.77
2018-Nov-23 12:31:33 1004.500 9.9 83 7.1       1.03 151.77
2018-Nov-23 13:01:29 1003.800 10.6 80 7.3       1.03 151.77
2018-Nov-23 14:01:32 1003.900 11.8 70 6.5 1.7 NW   1.03 151.77
2018-Nov-23 15:01:46 1003.600 10.9 69 5.5 1.2 NW   1.03 151.77
2018-Nov-23 16:01:35 1003.500 9.9 71 4.9       1.03 151.77
2018-Nov-23 17:01:32 1004.300 9.3 71 4.5       1.03 151.77
2018-Nov-23 18:01:21 1004.500 7.9 73 3.5       1.03 151.77
2018-Nov-23 19:01:41 1005.400 5.6 77 1.9       1.03 151.77
2018-Nov-23 20:01:23 1005.300 4.4 80 1.3       1.03 151.77
2018-Nov-23 21:01:17 1006.400 3.3 82 0.5       1.03 151.77
2018-Nov-23 22:01:20 1007.100 2.1 84 -0.4       1.03 151.77
2018-Nov-23 23:01:55 1006.700 1.4 85 -0.9       1.03 151.77

Temperatura Máxima:11°    Temperatura Mínima:
Presión Máxima:1007.100 Hpa    Presión Mínima:1002.100 Hpa


Volver